Terminal Aerodrome Forecast
Issued by NWS Detroit/Pontiac, MI

Home | Current Version | Previous Version | Text Only | Print | Product List | Glossary On
Versions: 1 2 3 4 5 6 7 8 9 10 11 12 13 14 15 16 17 18 19
125
FTUS43 KDTX 190323 AAA
TAFFNT
TAF AMD
KFNT 190323Z 1903/1924 22015G25KT P6SM SCT250
     FM190900 22010KT P6SM BKN200
     FM191200 22014KT P6SM FEW020 BKN150
     FM192200 22012KT P6SM BKN150=

USA.gov is the U.S. government's official web portal to all federal, state and local government web resources and services.